KBTP/BTP METAR and TAF weather

Enter ICAO airport designator
Station Type Date Time Source
KBTP METAR 2021/05/12 01:56 UTC NOAA

KBTP 120156Z AUTO 00000KT 10SM CLR 04/M01 A3026 RMK AO2 SLP261 T00391011


Station Type Date Time Source
KBTP Decoded METAR 2021/05/12 01:56 UTC NOAA

Butler, Butler County Airport/K W Scholter Field, PA, United States (KBTP) 40-47N 079-57W
May 11, 2021 - 09:56 PM EDT / 2021.05.12 0156 UTC
Wind: Calm:0
Visibility: 10 mile(s):0
Sky conditions: clear
Temperature: 39.0 F (3.9 C)
Dew Point: 30.0 F (-1.1 C)
Relative Humidity: 69%
Pressure (altimeter): 30.26 in. Hg (1024 hPa)
ob: KBTP 120156Z AUTO 00000KT 10SM CLR 04/M01 A3026 RMK AO2 SLP261 T00391011
cycle: 2

Station Type Date Time Source
KBTP TAF UTC NOAA

Error!

Example: see airport list